createdAt,value
2024-05-09T00:00:46.935Z,99.90
2024-05-09T00:03:14.649Z,99.90
2024-05-09T00:05:43.495Z,99.90
2024-05-09T00:08:12.593Z,99.90
2024-05-09T00:10:41.257Z,99.90
2024-05-09T00:13:10.334Z,99.90
2024-05-09T00:15:38.814Z,99.90
2024-05-09T00:18:09.438Z,99.90
2024-05-09T00:20:40.124Z,99.90
2024-05-09T00:23:15.851Z,99.90
2024-05-09T00:25:44.398Z,99.90
2024-05-09T00:28:13.022Z,99.90
2024-05-09T00:30:41.356Z,99.90
2024-05-09T00:33:10.667Z,99.90
2024-05-09T00:35:39.364Z,99.90
2024-05-09T00:38:07.248Z,99.90
2024-05-09T00:40:40.648Z,99.90
2024-05-09T00:43:14.618Z,99.90
2024-05-09T00:45:43.914Z,99.90
2024-05-09T00:48:17.545Z,99.90
2024-05-09T00:50:47.748Z,99.90
2024-05-09T00:53:16.811Z,99.90
2024-05-09T00:55:45.131Z,99.90
2024-05-09T00:58:15.166Z,99.90
2024-05-09T01:00:44.348Z,99.90
2024-05-09T01:03:13.724Z,99.90
2024-05-09T01:05:43.427Z,99.90
2024-05-09T01:08:12.101Z,99.90
2024-05-09T01:10:42.845Z,99.90
2024-05-09T01:13:13.063Z,99.90
2024-05-09T01:15:40.695Z,99.90
2024-05-09T01:18:13.447Z,99.90
2024-05-09T01:20:44.309Z,99.90
2024-05-09T01:23:15.411Z,99.90
2024-05-09T01:25:45.614Z,99.90
2024-05-09T01:28:13.863Z,99.90
2024-05-09T01:30:41.486Z,99.90
2024-05-09T01:33:10.791Z,99.90
2024-05-09T01:35:42.314Z,99.90
2024-05-09T01:38:13.986Z,99.90
2024-05-09T01:40:42.038Z,99.90
2024-05-09T01:43:10.897Z,99.90
2024-05-09T01:45:40.305Z,99.90
2024-05-09T01:48:09.284Z,99.90
2024-05-09T01:50:40.802Z,99.90
2024-05-09T01:53:12.006Z,99.90
2024-05-09T01:55:40.397Z,99.90
2024-05-09T01:58:09.085Z,99.90
2024-05-09T02:00:40.761Z,99.90
2024-05-09T02:03:15.313Z,99.90
2024-05-09T02:05:46.554Z,99.90
2024-05-09T02:08:20.172Z,99.90
2024-05-09T02:10:49.172Z,99.90
2024-05-09T02:13:17.366Z,99.90
2024-05-09T02:15:45.068Z,99.90
2024-05-09T02:18:13.271Z,99.90
2024-05-09T02:20:42.742Z,99.90
2024-05-09T02:23:11.035Z,99.90
2024-05-09T02:25:38.693Z,99.90
2024-05-09T02:28:06.556Z,99.90
2024-05-09T02:30:39.822Z,99.90
2024-05-09T02:33:12.114Z,99.90
2024-05-09T02:35:41.858Z,99.90
2024-05-09T02:38:10.333Z,99.90
2024-05-09T02:40:39.714Z,99.90
2024-05-09T02:43:10.706Z,99.90
2024-05-09T02:45:40.065Z,99.90
2024-05-09T02:48:10.945Z,99.90
2024-05-09T02:50:41.168Z,99.90
2024-05-09T02:53:09.701Z,99.90
2024-05-09T02:55:41.318Z,99.30
2024-05-09T02:58:09.563Z,98.40
2024-05-09T03:00:40.713Z,97.90
2024-05-09T03:03:14.916Z,97.70
2024-05-09T03:05:44.266Z,96.70
2024-05-09T03:08:12.620Z,97.10
2024-05-09T03:10:40.566Z,96.60
2024-05-09T03:13:09.171Z,96.80
2024-05-09T03:15:37.139Z,97.00
2024-05-09T03:18:06.049Z,99.10
2024-05-09T03:20:35.749Z,99.90
2024-05-09T03:23:08.882Z,99.90
2024-05-09T03:25:38.104Z,99.90
2024-05-09T03:28:06.180Z,99.50
2024-05-09T03:30:41.141Z,99.50
2024-05-09T03:33:19.549Z,99.80
2024-05-09T03:35:49.451Z,99.80
2024-05-09T03:38:17.594Z,99.70
2024-05-09T03:40:50.445Z,98.40
2024-05-09T03:43:19.564Z,98.40
2024-05-09T03:45:49.690Z,97.60
2024-05-09T03:48:17.706Z,97.90
2024-05-09T03:50:45.615Z,97.60
2024-05-09T03:53:14.754Z,97.90
2024-05-09T03:55:42.544Z,97.60
2024-05-09T03:58:10.155Z,93.90
2024-05-09T04:00:39.612Z,94.60
2024-05-09T04:03:11.201Z,94.80
2024-05-09T04:05:42.617Z,93.50
2024-05-09T04:08:11.720Z,93.30
2024-05-09T04:10:39.463Z,93.40
2024-05-09T04:13:07.011Z,93.80
2024-05-09T04:15:34.531Z,93.20
2024-05-09T04:18:02.679Z,93.20
2024-05-09T04:20:37.807Z,93.20
2024-05-09T04:23:11.136Z,88.40
2024-05-09T04:25:41.574Z,90.50
2024-05-09T04:28:09.199Z,90.50
2024-05-09T04:30:39.754Z,91.20
2024-05-09T04:33:14.250Z,91.10
2024-05-09T04:35:45.731Z,91.00
2024-05-09T04:38:14.891Z,90.40
2024-05-09T04:40:43.001Z,90.70
2024-05-09T04:43:19.767Z,91.30
2024-05-09T04:45:47.517Z,90.60
2024-05-09T04:48:15.409Z,88.80
2024-05-09T04:50:43.176Z,88.90
2024-05-09T04:53:15.429Z,84.50
2024-05-09T04:55:43.626Z,88.60
2024-05-09T04:58:12.085Z,87.90
2024-05-09T05:00:41.026Z,88.00
2024-05-09T05:03:13.477Z,88.30
2024-05-09T05:05:44.577Z,88.00
2024-05-09T05:08:17.654Z,86.80
2024-05-09T05:10:46.650Z,86.70
2024-05-09T05:13:24.165Z,85.80
2024-05-09T05:15:57.255Z,83.10
2024-05-09T05:18:27.380Z,81.80
2024-05-09T05:20:58.934Z,84.60
2024-05-09T05:23:26.683Z,82.80
2024-05-09T05:25:54.961Z,80.80
2024-05-09T05:28:23.563Z,79.90
2024-05-09T05:30:51.377Z,80.60
2024-05-09T05:33:19.850Z,78.70
2024-05-09T05:35:48.119Z,79.30
2024-05-09T05:38:15.895Z,80.60
2024-05-09T05:40:43.641Z,75.80
2024-05-09T05:43:18.222Z,77.30
2024-05-09T05:45:46.475Z,79.00
2024-05-09T05:48:17.285Z,80.20
2024-05-09T05:50:45.485Z,76.20
2024-05-09T05:53:13.767Z,77.90
2024-05-09T05:55:42.086Z,80.60
2024-05-09T05:58:10.949Z,77.60
2024-05-09T06:00:40.515Z,75.20
2024-05-09T06:03:10.265Z,76.20
2024-05-09T06:05:44.339Z,76.90
2024-05-09T06:08:12.624Z,79.30
2024-05-09T06:10:41.695Z,79.70
2024-05-09T06:13:14.151Z,74.40
2024-05-09T06:15:43.046Z,73.10
2024-05-09T06:18:12.336Z,75.50
2024-05-09T06:20:43.293Z,73.60
2024-05-09T06:23:12.534Z,75.80
2024-05-09T06:25:40.486Z,78.00
2024-05-09T06:28:08.137Z,76.30
2024-05-09T06:30:42.517Z,76.80
2024-05-09T06:33:13.409Z,76.40
2024-05-09T06:35:43.088Z,71.50
2024-05-09T06:38:11.058Z,71.50
2024-05-09T06:40:41.972Z,73.30
2024-05-09T06:43:16.897Z,74.60
2024-05-09T06:45:50.072Z,76.90
2024-05-09T06:48:21.738Z,77.20
2024-05-09T06:50:50.831Z,72.40
2024-05-09T06:53:22.049Z,71.70
2024-05-09T06:55:50.372Z,69.60
2024-05-09T06:58:18.114Z,67.90
2024-05-09T07:00:45.919Z,69.80
2024-05-09T07:03:17.279Z,68.60
2024-05-09T07:05:48.129Z,69.80
2024-05-09T07:08:16.916Z,71.60
2024-05-09T07:10:45.303Z,71.20
2024-05-09T07:13:14.386Z,72.20
2024-05-09T07:15:42.547Z,70.70
2024-05-09T07:18:16.722Z,68.80
2024-05-09T07:20:46.440Z,70.80
2024-05-09T07:23:14.689Z,69.40
2024-05-09T07:25:42.620Z,67.40
2024-05-09T07:28:15.996Z,67.90
2024-05-09T07:30:44.160Z,59.80
2024-05-09T07:33:24.812Z,58.30
2024-05-09T07:35:53.163Z,62.70
2024-05-09T07:38:21.088Z,63.70
2024-05-09T07:40:49.323Z,62.80
2024-05-09T07:43:17.049Z,62.40
2024-05-09T07:45:52.332Z,59.70
2024-05-09T07:52:38.068Z,56.80
2024-05-09T07:53:49.302Z,61.90
2024-05-09T07:56:22.500Z,63.60
2024-05-09T07:58:54.174Z,62.20
2024-05-09T08:01:22.019Z,62.00
2024-05-09T08:03:50.151Z,60.70
2024-05-09T08:06:18.163Z,58.70
2024-05-09T08:08:49.109Z,60.00
2024-05-09T08:11:16.726Z,59.60
2024-05-09T08:13:44.443Z,58.90
2024-05-09T08:16:14.001Z,57.70
2024-05-09T08:18:41.971Z,56.80
2024-05-09T08:21:09.617Z,58.80
2024-05-09T08:23:37.219Z,56.60
2024-05-09T08:26:04.845Z,56.80
2024-05-09T08:28:32.441Z,60.00
2024-05-09T08:31:02.405Z,55.50
2024-05-09T08:33:32.685Z,56.10
2024-05-09T08:36:00.503Z,54.70
2024-05-09T08:38:28.230Z,58.00
2024-05-09T08:40:56.539Z,59.70
2024-05-09T08:43:27.033Z,58.90
2024-05-09T08:45:54.617Z,59.60
2024-05-09T08:48:24.740Z,55.10
2024-05-09T08:50:55.639Z,58.90
2024-05-09T08:53:23.375Z,55.80
2024-05-09T08:55:52.891Z,57.00
2024-05-09T08:58:20.859Z,55.00
2024-05-09T09:00:49.595Z,53.90
2024-05-09T09:03:25.389Z,55.90
2024-05-09T09:06:11.981Z,62.00
2024-05-09T09:08:40.526Z,56.30
2024-05-09T09:11:08.175Z,58.80
2024-05-09T09:13:35.699Z,55.60
2024-05-09T09:16:04.102Z,52.40
2024-05-09T09:18:33.338Z,55.00
2024-05-09T09:21:01.152Z,57.70
2024-05-09T09:23:30.484Z,53.10
2024-05-09T09:26:01.132Z,53.90
2024-05-09T09:28:28.813Z,55.30
2024-05-09T09:31:03.605Z,55.20
2024-05-09T09:33:36.498Z,54.70
2024-05-09T09:36:06.311Z,52.80
2024-05-09T09:38:38.071Z,53.50
2024-05-09T09:41:07.268Z,54.40
2024-05-09T09:43:35.416Z,52.70
2024-05-09T09:46:04.718Z,53.20
2024-05-09T09:48:33.318Z,52.50
2024-05-09T09:51:01.361Z,53.00
2024-05-09T09:53:29.674Z,56.00
2024-05-09T09:55:59.476Z,52.10
2024-05-09T09:58:29.755Z,57.10
2024-05-09T10:00:57.385Z,54.20
2024-05-09T10:03:25.418Z,53.40
2024-05-09T10:05:54.087Z,53.70
2024-05-09T10:08:24.447Z,53.80
2024-05-09T10:10:52.573Z,52.20
2024-05-09T10:13:20.405Z,51.70
2024-05-09T10:15:51.435Z,55.00
2024-05-09T10:18:28.073Z,54.70
2024-05-09T10:20:58.160Z,53.20
2024-05-09T10:23:36.477Z,53.60
2024-05-09T10:26:05.917Z,53.40
2024-05-09T10:28:42.611Z,58.00
2024-05-09T10:31:11.274Z,54.20
2024-05-09T10:33:53.015Z,55.80
2024-05-09T10:36:27.629Z,54.30
2024-05-09T10:38:56.118Z,57.30
2024-05-09T10:41:24.440Z,55.60
2024-05-09T10:43:52.492Z,54.70
2024-05-09T10:46:20.548Z,56.80
2024-05-09T10:48:49.039Z,55.10
2024-05-09T10:51:20.006Z,55.70
2024-05-09T10:53:48.633Z,55.70
2024-05-09T10:56:17.214Z,57.40
2024-05-09T10:58:45.226Z,53.80
2024-05-09T11:01:14.091Z,53.40
2024-05-09T11:03:42.443Z,53.70
2024-05-09T11:06:11.942Z,53.90
2024-05-09T11:08:40.374Z,55.70
2024-05-09T11:11:08.993Z,59.10
2024-05-09T11:13:41.067Z,58.60
2024-05-09T11:16:21.793Z,56.90
2024-05-09T11:18:56.830Z,57.20
2024-05-09T11:21:25.135Z,59.60
2024-05-09T11:23:53.271Z,58.40
2024-05-09T11:26:22.482Z,58.10
2024-05-09T11:28:51.092Z,57.80
2024-05-09T11:31:19.152Z,57.30
2024-05-09T11:33:47.159Z,57.80
2024-05-09T11:36:15.547Z,58.80
2024-05-09T11:38:43.510Z,58.70
2024-05-09T11:41:18.058Z,58.50
2024-05-09T11:43:45.552Z,58.60
2024-05-09T11:46:13.212Z,60.00
2024-05-09T11:48:41.043Z,60.60
2024-05-09T11:51:08.629Z,62.10
2024-05-09T11:53:36.126Z,64.20
2024-05-09T11:56:04.087Z,63.70
2024-05-09T11:58:35.023Z,64.20
2024-05-09T12:01:02.883Z,64.60
2024-05-09T12:03:30.719Z,64.90
2024-05-09T12:05:58.812Z,64.90
2024-05-09T12:08:26.854Z,64.90
2024-05-09T12:10:54.589Z,64.30
2024-05-09T12:13:22.475Z,65.00
2024-05-09T12:15:50.356Z,63.00
2024-05-09T12:18:17.897Z,64.20
2024-05-09T12:20:45.495Z,62.30
2024-05-09T12:23:13.178Z,64.20
2024-05-09T12:25:40.985Z,63.80
2024-05-09T12:28:09.223Z,66.30
2024-05-09T12:30:41.742Z,64.40
2024-05-09T12:33:12.468Z,65.00
2024-05-09T12:35:44.097Z,66.20
2024-05-09T12:38:14.929Z,65.50
2024-05-09T12:40:43.044Z,66.90
2024-05-09T12:43:11.617Z,67.80
2024-05-09T12:45:40.652Z,65.80
2024-05-09T12:48:12.552Z,66.80
2024-05-09T12:50:41.513Z,70.20
2024-05-09T12:53:09.527Z,69.10
2024-05-09T12:55:44.420Z,67.80
2024-05-09T12:58:22.775Z,67.80
2024-05-09T13:00:52.313Z,68.00
2024-05-09T13:03:20.453Z,68.00
2024-05-09T13:05:48.915Z,68.40
2024-05-09T13:08:16.659Z,69.50
2024-05-09T13:10:44.613Z,72.00
2024-05-09T13:13:12.778Z,72.10
2024-05-09T13:15:40.683Z,73.20
2024-05-09T13:18:09.573Z,74.00
2024-05-09T13:20:37.682Z,75.00
2024-05-09T13:23:07.504Z,75.10
2024-05-09T13:25:36.211Z,76.10
2024-05-09T13:28:04.785Z,78.20
2024-05-09T13:30:39.989Z,75.40
2024-05-09T13:33:14.226Z,77.70
2024-05-09T13:35:47.275Z,75.50
2024-05-09T13:38:19.479Z,75.00
2024-05-09T13:40:47.988Z,76.10
2024-05-09T13:43:16.234Z,75.90
2024-05-09T13:45:44.387Z,76.00
2024-05-09T13:48:12.466Z,77.10
2024-05-09T13:50:40.478Z,79.20
2024-05-09T13:53:09.163Z,79.10
2024-05-09T13:55:39.223Z,79.70
2024-05-09T13:58:08.650Z,79.80
2024-05-09T14:00:45.925Z,81.50
2024-05-09T14:03:18.671Z,81.90
2024-05-09T14:05:48.172Z,82.10
2024-05-09T14:08:18.037Z,83.00
2024-05-09T14:10:48.806Z,84.00
2024-05-09T14:13:16.841Z,85.20
2024-05-09T14:15:44.633Z,84.30
2024-05-09T14:18:14.139Z,85.10
2024-05-09T14:20:42.960Z,84.70
2024-05-09T14:23:10.774Z,86.00
2024-05-09T14:25:42.801Z,86.90
2024-05-09T14:28:12.732Z,87.90
2024-05-09T14:30:41.528Z,88.70
2024-05-09T14:33:09.733Z,89.80
2024-05-09T14:35:39.042Z,90.50
2024-05-09T14:38:07.741Z,90.50
2024-05-09T14:40:42.279Z,90.40
2024-05-09T14:43:13.749Z,90.60
2024-05-09T14:45:42.806Z,91.10
2024-05-09T14:48:11.909Z,90.20
2024-05-09T14:50:40.806Z,89.50
2024-05-09T14:53:12.919Z,90.20
2024-05-09T14:55:43.319Z,90.10
2024-05-09T14:58:12.566Z,90.10
2024-05-09T15:00:46.423Z,88.80
2024-05-09T15:03:22.237Z,90.10
2024-05-09T15:05:51.501Z,90.20
2024-05-09T15:08:20.470Z,89.90
2024-05-09T15:10:50.425Z,90.00
2024-05-09T15:13:19.697Z,90.80
2024-05-09T15:15:47.442Z,90.70
2024-05-09T15:18:15.594Z,90.10
2024-05-09T15:20:45.417Z,89.60
2024-05-09T15:23:13.856Z,89.80
2024-05-09T15:25:41.595Z,89.90
2024-05-09T15:28:09.446Z,90.40
2024-05-09T15:30:37.795Z,90.50
2024-05-09T15:33:07.090Z,90.10
2024-05-09T15:35:37.679Z,89.00
2024-05-09T15:38:05.412Z,89.40
2024-05-09T15:40:39.537Z,88.10
2024-05-09T15:43:10.978Z,88.30
2024-05-09T15:45:41.219Z,89.90
2024-05-09T15:48:10.331Z,88.30
2024-05-09T15:50:41.115Z,89.20
2024-05-09T15:53:12.787Z,89.60
2024-05-09T15:55:41.830Z,89.90
2024-05-09T15:58:11.074Z,89.90
2024-05-09T16:00:42.179Z,89.90
2024-05-09T16:03:13.235Z,89.80
2024-05-09T16:05:43.397Z,90.10
2024-05-09T16:08:12.779Z,90.50
2024-05-09T16:10:44.608Z,89.80
2024-05-09T16:13:13.802Z,90.20
2024-05-09T16:15:41.708Z,90.60
2024-05-09T16:18:09.313Z,90.50
2024-05-09T16:20:40.435Z,90.50
2024-05-09T16:23:10.638Z,90.70
2024-05-09T16:25:38.426Z,90.70
2024-05-09T16:28:09.870Z,91.30
2024-05-09T16:30:40.230Z,91.40
2024-05-09T16:33:08.587Z,91.50
2024-05-09T16:35:37.608Z,91.80
2024-05-09T16:38:06.455Z,91.60
2024-05-09T16:40:38.801Z,91.90
2024-05-09T16:43:13.091Z,92.10
2024-05-09T16:45:44.516Z,92.20
2024-05-09T16:48:13.429Z,92.40
2024-05-09T16:50:41.073Z,92.20
2024-05-09T16:53:09.231Z,92.40
2024-05-09T16:55:36.979Z,92.20
2024-05-09T16:58:08.134Z,92.30
2024-05-09T17:00:41.488Z,91.70
2024-05-09T17:03:15.582Z,91.70
2024-05-09T17:05:48.123Z,91.70
2024-05-09T17:08:18.565Z,92.10
2024-05-09T17:10:49.506Z,92.10
2024-05-09T17:13:18.501Z,92.10
2024-05-09T17:15:46.522Z,92.60
2024-05-09T17:18:14.862Z,92.50
2024-05-09T17:20:42.480Z,92.60
2024-05-09T17:23:14.388Z,92.50
2024-05-09T17:25:43.341Z,92.80
2024-05-09T17:28:11.702Z,92.90
2024-05-09T17:30:42.006Z,93.00
2024-05-09T17:33:11.732Z,93.20
2024-05-09T17:35:40.502Z,93.40
2024-05-09T17:38:08.792Z,93.70
2024-05-09T17:40:38.317Z,93.80
2024-05-09T17:43:09.406Z,94.00
2024-05-09T17:45:42.156Z,94.00
2024-05-09T17:48:11.480Z,94.10
2024-05-09T17:50:40.493Z,94.40
2024-05-09T17:53:09.065Z,94.50
2024-05-09T17:55:36.984Z,94.60
2024-05-09T17:58:05.855Z,94.90
2024-05-09T18:00:41.510Z,94.90
2024-05-09T18:03:12.517Z,95.00
2024-05-09T18:05:44.492Z,95.30
2024-05-09T18:08:13.253Z,95.40
2024-05-09T18:10:41.537Z,95.70
2024-05-09T18:13:09.982Z,95.60
2024-05-09T18:15:38.075Z,95.70
2024-05-09T18:18:07.086Z,95.90
2024-05-09T18:20:42.068Z,96.00
2024-05-09T18:23:18.052Z,96.10
2024-05-09T18:25:47.785Z,96.10
2024-05-09T18:28:16.829Z,96.30
2024-05-09T18:30:44.917Z,96.60
2024-05-09T18:33:13.107Z,97.00
2024-05-09T18:35:45.301Z,97.40
2024-05-09T18:38:13.876Z,98.50
2024-05-09T18:40:43.761Z,99.00
2024-05-09T18:43:13.548Z,99.10
2024-05-09T18:45:41.125Z,99.50
2024-05-09T18:48:10.347Z,99.90
2024-05-09T18:50:40.464Z,99.90
2024-05-09T18:53:12.384Z,99.90
2024-05-09T18:55:41.837Z,99.90
2024-05-09T18:58:09.850Z,99.90
2024-05-09T19:00:40.150Z,99.90
2024-05-09T19:03:13.756Z,99.90
2024-05-09T19:05:44.389Z,99.90
2024-05-09T19:08:15.465Z,99.90
2024-05-09T19:10:46.113Z,99.90
2024-05-09T19:13:14.904Z,99.90
2024-05-09T19:15:44.987Z,99.90
2024-05-09T19:18:17.522Z,99.90
2024-05-09T19:20:45.105Z,99.90
2024-05-09T19:23:12.769Z,99.90
2024-05-09T19:25:40.452Z,99.90
2024-05-09T19:28:08.499Z,99.90
2024-05-09T19:30:40.368Z,99.90
2024-05-09T19:33:14.249Z,99.90
2024-05-09T19:35:43.065Z,99.90
2024-05-09T19:38:11.216Z,99.90
2024-05-09T19:40:38.658Z,99.90
2024-05-09T19:43:06.576Z,99.90
2024-05-09T19:45:35.641Z,99.90
2024-05-09T19:48:05.000Z,99.90
2024-05-09T19:50:40.989Z,99.90
2024-05-09T19:53:12.388Z,99.90
2024-05-09T19:55:40.650Z,99.90
2024-05-09T19:58:09.306Z,99.90
2024-05-09T20:00:40.404Z,99.90
2024-05-09T20:03:11.865Z,99.90
2024-05-09T20:05:40.051Z,99.90
2024-05-09T20:08:07.919Z,99.90
2024-05-09T20:10:36.407Z,99.90
2024-05-09T20:13:06.599Z,99.90
2024-05-09T20:15:35.840Z,99.90
2024-05-09T20:18:04.071Z,99.90
2024-05-09T20:20:38.063Z,99.90
2024-05-09T20:23:09.991Z,99.90
2024-05-09T20:25:37.587Z,99.90
2024-05-09T20:28:06.677Z,99.90
2024-05-09T20:30:35.933Z,99.90
2024-05-09T20:33:05.605Z,99.90
2024-05-09T20:35:35.014Z,99.90
2024-05-09T20:38:03.742Z,99.90
2024-05-09T20:40:36.365Z,99.90
2024-05-09T20:43:07.503Z,99.90
2024-05-09T20:45:35.502Z,99.90
2024-05-09T20:48:03.492Z,99.90
2024-05-09T20:50:37.976Z,99.90
2024-05-09T20:53:13.969Z,99.90
2024-05-09T20:55:44.112Z,99.90
2024-05-09T20:58:12.836Z,99.90
2024-05-09T21:00:43.800Z,99.90
2024-05-09T21:03:16.415Z,99.90
2024-05-09T21:05:45.335Z,99.90
2024-05-09T21:08:12.984Z,99.90
2024-05-09T21:10:40.383Z,99.90
2024-05-09T21:13:08.138Z,99.90
2024-05-09T21:15:36.278Z,99.90
2024-05-09T21:18:04.581Z,99.90
2024-05-09T21:20:35.002Z,99.90
2024-05-09T21:23:03.271Z,99.90
2024-05-09T21:25:31.600Z,99.90
2024-05-09T21:27:59.089Z,99.90
2024-05-09T21:30:32.726Z,99.90
2024-05-09T21:33:13.896Z,99.90
2024-05-09T21:35:43.986Z,99.90
2024-05-09T21:38:14.140Z,99.90
2024-05-09T21:40:42.995Z,99.90
2024-05-09T21:43:10.727Z,99.90
2024-05-09T21:45:38.445Z,99.90
2024-05-09T21:48:07.402Z,99.90
2024-05-09T21:50:40.423Z,99.90
2024-05-09T21:53:11.774Z,99.90
2024-05-09T21:55:39.683Z,99.90
2024-05-09T21:58:07.035Z,99.90
2024-05-09T22:00:38.358Z,99.90
2024-05-09T22:03:10.748Z,99.90
2024-05-09T22:05:42.596Z,99.90
2024-05-09T22:08:11.142Z,99.90
2024-05-09T22:10:38.946Z,99.90
2024-05-09T22:13:07.457Z,99.90
2024-05-09T22:15:37.442Z,99.90
2024-05-09T22:18:08.603Z,99.90
2024-05-09T22:20:39.330Z,99.90
2024-05-09T22:23:08.735Z,99.90
2024-05-09T22:25:38.863Z,99.90
2024-05-09T22:28:06.748Z,99.90
2024-05-09T22:30:37.977Z,99.90
2024-05-09T22:33:09.670Z,99.90
2024-05-09T22:35:38.819Z,99.90
2024-05-09T22:38:06.357Z,99.90
2024-05-09T22:40:43.376Z,99.90
2024-05-09T22:43:21.500Z,99.90
2024-05-09T22:45:51.451Z,99.90
2024-05-09T22:48:19.646Z,99.90
2024-05-09T22:50:47.130Z,99.90
2024-05-09T22:53:15.219Z,99.90
2024-05-09T22:55:43.062Z,99.90
2024-05-09T22:58:10.647Z,99.90
2024-05-09T23:00:38.375Z,99.90
2024-05-09T23:03:06.591Z,99.90
2024-05-09T23:05:34.319Z,99.90
2024-05-09T23:08:02.912Z,99.90
2024-05-09T23:10:36.036Z,99.90
2024-05-09T23:13:07.582Z,99.90
2024-05-09T23:15:36.580Z,99.90
2024-05-09T23:18:04.503Z,99.90
2024-05-09T23:20:37.447Z,99.90
2024-05-09T23:23:08.528Z,99.90
2024-05-09T23:25:36.738Z,99.90
2024-05-09T23:28:04.693Z,99.90
2024-05-09T23:30:38.017Z,99.90
2024-05-09T23:33:09.833Z,99.90
2024-05-09T23:35:37.627Z,99.90
2024-05-09T23:38:05.599Z,99.90
2024-05-09T23:43:04.187Z,99.90
2024-05-09T23:45:31.795Z,99.90
2024-05-09T23:47:59.557Z,99.90
2024-05-09T23:50:34.190Z,99.90
2024-05-09T23:53:05.582Z,99.90
2024-05-09T23:55:33.657Z,99.90
2024-05-09T23:58:01.422Z,99.90
